Native Sun — WDD2862 — position and weather

sailwx.info

Track history (hours):
 
Tides and Currents Weather Stations Pressure Air Temp Water Temp Dewpoint Dewpoint Depression Visibility Wind Speed Wind Dir Waves Ship Positions

Native Sun

Owner: SVELLING, ERIC, BARNEGAT LIGHT, NJ. More information available from US FCC via Universal Licensing System and Coast Guard Vessel Documentation Center.

Last reported at 2017-Sep-17 20:10 UTC. Time now 2017-Sep-21 05:02 UTC.
Position N 39°46' W 074°07'.

Length 14 m.

Type: Fishing. MMSI: 367120830.

Date/timePositionNaut miles runAvg speedWind from/ knotsBaromVisibWave heightAir tempDewpointWater temp
2017-Sep-17 20:10N 39°46' W 074°07'0 0.0
2017-Sep-17 19:58N 39°46' W 074°07'0 0.0
2017-Sep-17 19:30N 39°46' W 074°07'3 3.6
2017-Sep-17 18:48N 39°46' W 074°04'1 4.1
2017-Sep-17 18:29N 39°47' W 074°02'0 0.5
2017-Sep-17 17:58N 39°47' W 074°02'0 0.1
2017-Sep-17 17:16N 39°47' W 074°02'0 0.1
2017-Sep-17 16:52N 39°47' W 074°02'0 0.1
2017-Sep-17 16:01N 39°47' W 074°02'0 0.5
2017-Sep-17 16:00N 39°47' W 074°02'0 0.5
2017-Sep-17 15:24N 39°47' W 074°02'0 0.2
2017-Sep-17 14:00N 39°47' W 074°02'0 0.1
2017-Sep-17 13:30N 39°47' W 074°02'0 0.6
2017-Sep-17 12:51N 39°47' W 074°03'0 0.4
2017-Sep-17 12:27N 39°47' W 074°02'0 0.2
2017-Sep-17 11:45N 39°47' W 074°03'0 0.4
2017-Sep-17 11:20N 39°47' W 074°03'0 1.3
2017-Sep-17 11:00N 39°47' W 074°02'2 3.5
2017-Sep-17 10:30N 39°46' W 074°04'2 0.1
2017-Sep-16 18:44N 39°46' W 074°07'0 0.0
2017-Sep-16 18:26N 39°46' W 074°07'1 3.1
2017-Sep-16 17:58N 39°46' W 074°05'2 4.3
2017-Sep-16 17:27N 39°48' W 074°03'0 0.4
2017-Sep-16 16:59N 39°48' W 074°04'0 0.2
2017-Sep-16 16:12N 39°48' W 074°03'0 1.3
2017-Sep-16 16:00N 39°48' W 074°04'1 1.1
2017-Sep-16 15:27N 39°49' W 074°04'0 0.2
2017-Sep-16 14:57N 39°49' W 074°04'0 0.5
2017-Sep-16 14:28N 39°49' W 074°04'0 0.3
2017-Sep-16 13:53N 39°49' W 074°04'0 0.3
2017-Sep-16 13:23N 39°49' W 074°04'0 0.4
2017-Sep-16 12:41N 39°49' W 074°04'0 0.3
2017-Sep-16 12:29N 39°49' W 074°03'0 0.3
2017-Sep-16 11:59N 39°49' W 074°03'0 0.1
2017-Sep-16 11:25N 39°49' W 074°03'1 2.3
2017-Sep-16 11:00N 39°49' W 074°04'3 5.4
2017-Sep-16 10:30N 39°46' W 074°05'1 0.1
2017-Sep-15 16:08N 39°46' W 074°07'0 0.0
2017-Sep-15 15:56N 39°46' W 074°07'2 3.4
2017-Sep-15 15:28N 39°46' W 074°04'4 0.6
2017-Sep-15 08:43N 39°48' W 073°60'2 8.9
2017-Sep-15 08:28N 39°47' W 074°03'3 7.1
2017-Sep-15 08:00N 39°46' W 074°07'0 0.0
2017-Sep-14 18:11N 39°46' W 074°07'0 0.0
2017-Sep-14 17:59N 39°46' W 074°07'2 2.6
2017-Sep-14 17:24N 39°46' W 074°05'3 8.4
2017-Sep-14 17:00N 39°47' W 074°01'10 1.6
2017-Sep-14 10:24N 39°52' W 073°48'0 1.2
2017-Sep-14 10:00N 39°51' W 073°49'1 2.8
2017-Sep-14 09:30N 39°51' W 073°51'4 8.9
2017-Sep-14 09:00N 39°49' W 073°56'5 9.1
2017-Sep-14 08:30N 39°47' W 074°01'4 7.8
2017-Sep-14 08:00N 39°46' W 074°06'0 0.0
2017-Sep-13 19:00N 39°46' W 074°07'0 0.1
2017-Sep-13 18:25N 39°46' W 074°07'2 3.4
2017-Sep-13 17:53N 39°46' W 074°04'8 8.6
2017-Sep-13 16:55N 39°50' W 073°54'4 8.5
2017-Sep-13 16:30N 39°51' W 073°50'1 1.5
2017-Sep-13 15:30N 39°52' W 073°49'0 0.1
2017-Sep-13 13:59N 39°52' W 073°49'0 0.2
2017-Sep-13 13:29N 39°52' W 073°49'0 0.6
2017-Sep-13 13:00N 39°52' W 073°48'1 1.3
2017-Sep-13 12:28N 39°52' W 073°49'0 0.3
2017-Sep-13 11:58N 39°52' W 073°49'0 0.4
2017-Sep-13 11:29N 39°52' W 073°49'0 0.9
2017-Sep-13 10:59N 39°52' W 073°48'0 0.1
2017-Sep-13 10:30N 39°52' W 073°48'1 1.3
2017-Sep-13 10:00N 39°52' W 073°49'2 3.1
2017-Sep-13 09:30N 39°51' W 073°51'4 8.6
2017-Sep-13 09:00N 39°49' W 073°56'4 8.8
2017-Sep-13 08:30N 39°47' W 074°01'4 8.1
2017-Sep-13 08:00N 39°46' W 074°06'1 0.0
2017-Sep-12 18:20N 39°46' W 074°07'1 2.0
2017-Sep-12 17:58N 39°46' W 074°06'4 8.0
2017-Sep-12 17:26N 39°48' W 074°01'10 3.8
2017-Sep-12 14:44N 39°51' W 073°48'0 0.2
2017-Sep-12 14:30N 39°51' W 073°48'0 0.8
2017-Sep-12 13:56N 39°52' W 073°48'0 0.4
2017-Sep-12 13:28N 39°52' W 073°48'0 0.2
2017-Sep-12 12:49N 39°52' W 073°48'5 1.4
2017-Sep-12 09:13N 39°50' W 073°54'2 8.7
2017-Sep-12 08:59N 39°49' W 073°57'5 8.6
2017-Sep-12 08:25N 39°47' W 074°03'3 7.9
2017-Sep-12 08:00N 39°46' W 074°07'0 0.0
2017-Sep-11 19:21N 39°46' W 074°07'2 6.3
2017-Sep-11 19:00N 39°46' W 074°04'4 0.4
2017-Sep-11 08:50N 39°48' W 073°59'3 8.3
2017-Sep-11 08:29N 39°47' W 074°02'3 0.1
2017-Sep-09 17:49N 39°46' W 074°07'0 0.0
2017-Sep-09 17:25N 39°46' W 074°07'2 5.0
2017-Sep-09 17:00N 39°47' W 074°05'4 3.1
2017-Sep-09 15:53N 39°51' W 074°05'1 0.3
2017-Sep-09 14:10N 39°51' W 074°04'1 0.2
2017-Sep-09 11:21N 39°51' W 074°03'0 1.1
2017-Sep-09 10:58N 39°51' W 074°04'4 8.3
2017-Sep-09 10:30N 39°47' W 074°05'  
Track history (hours):
 
Tides and Currents Weather Stations Pressure Air Temp Water Temp Dewpoint Dewpoint Depression Visibility Wind Speed Wind Dir Waves Ship Positions

Native Sun

Owner: SVELLING, ERIC, BARNEGAT LIGHT, NJ. More information available from US FCC via Universal Licensing System and Coast Guard Vessel Documentation Center.

Last reported at 2017-Sep-17 20:10 UTC. Time now 2017-Sep-21 05:02 UTC.
Position N 39°46' W 074°07'.

Length 14 m.

Type: Fishing. MMSI: 367120830.

Date/timePositionNaut miles runAvg speedWind from/ knotsBaromVisibWave heightAir tempDewpointWater temp
2017-Sep-17 20:10N 39°46' W 074°07'0 0.0
2017-Sep-17 19:58N 39°46' W 074°07'0 0.0
2017-Sep-17 19:30N 39°46' W 074°07'3 3.6
2017-Sep-17 18:48N 39°46' W 074°04'1 4.1
2017-Sep-17 18:29N 39°47' W 074°02'0 0.5
2017-Sep-17 17:58N 39°47' W 074°02'0 0.1
2017-Sep-17 17:16N 39°47' W 074°02'0 0.1
2017-Sep-17 16:52N 39°47' W 074°02'0 0.1
2017-Sep-17 16:01N 39°47' W 074°02'0 0.5
2017-Sep-17 16:00N 39°47' W 074°02'0 0.5
2017-Sep-17 15:24N 39°47' W 074°02'0 0.2
2017-Sep-17 14:00N 39°47' W 074°02'0 0.1
2017-Sep-17 13:30N 39°47' W 074°02'0 0.6
2017-Sep-17 12:51N 39°47' W 074°03'0 0.4
2017-Sep-17 12:27N 39°47' W 074°02'0 0.2
2017-Sep-17 11:45N 39°47' W 074°03'0 0.4
2017-Sep-17 11:20N 39°47' W 074°03'0 1.3
2017-Sep-17 11:00N 39°47' W 074°02'2 3.5
2017-Sep-17 10:30N 39°46' W 074°04'2 0.1
2017-Sep-16 18:44N 39°46' W 074°07'0 0.0
2017-Sep-16 18:26N 39°46' W 074°07'1 3.1
2017-Sep-16 17:58N 39°46' W 074°05'2 4.3
2017-Sep-16 17:27N 39°48' W 074°03'0 0.4
2017-Sep-16 16:59N 39°48' W 074°04'0 0.2
2017-Sep-16 16:12N 39°48' W 074°03'0 1.3
2017-Sep-16 16:00N 39°48' W 074°04'1 1.1
2017-Sep-16 15:27N 39°49' W 074°04'0 0.2
2017-Sep-16 14:57N 39°49' W 074°04'0 0.5
2017-Sep-16 14:28N 39°49' W 074°04'0 0.3
2017-Sep-16 13:53N 39°49' W 074°04'0 0.3
2017-Sep-16 13:23N 39°49' W 074°04'0 0.4
2017-Sep-16 12:41N 39°49' W 074°04'0 0.3
2017-Sep-16 12:29N 39°49' W 074°03'0 0.3
2017-Sep-16 11:59N 39°49' W 074°03'0 0.1
2017-Sep-16 11:25N 39°49' W 074°03'1 2.3
2017-Sep-16 11:00N 39°49' W 074°04'3 5.4
2017-Sep-16 10:30N 39°46' W 074°05'1 0.1
2017-Sep-15 16:08N 39°46' W 074°07'0 0.0
2017-Sep-15 15:56N 39°46' W 074°07'2 3.4
2017-Sep-15 15:28N 39°46' W 074°04'4 0.6
2017-Sep-15 08:43N 39°48' W 073°60'2 8.9
2017-Sep-15 08:28N 39°47' W 074°03'3 7.1
2017-Sep-15 08:00N 39°46' W 074°07'0 0.0
2017-Sep-14 18:11N 39°46' W 074°07'0 0.0
2017-Sep-14 17:59N 39°46' W 074°07'2 2.6
2017-Sep-14 17:24N 39°46' W 074°05'3 8.4
2017-Sep-14 17:00N 39°47' W 074°01'10 1.6
2017-Sep-14 10:24N 39°52' W 073°48'0 1.2
2017-Sep-14 10:00N 39°51' W 073°49'1 2.8
2017-Sep-14 09:30N 39°51' W 073°51'4 8.9
2017-Sep-14 09:00N 39°49' W 073°56'5 9.1
2017-Sep-14 08:30N 39°47' W 074°01'4 7.8
2017-Sep-14 08:00N 39°46' W 074°06'0 0.0
2017-Sep-13 19:00N 39°46' W 074°07'0 0.1
2017-Sep-13 18:25N 39°46' W 074°07'2 3.4
2017-Sep-13 17:53N 39°46' W 074°04'8 8.6
2017-Sep-13 16:55N 39°50' W 073°54'4 8.5
2017-Sep-13 16:30N 39°51' W 073°50'1 1.5
2017-Sep-13 15:30N 39°52' W 073°49'0 0.1
2017-Sep-13 13:59N 39°52' W 073°49'0 0.2
2017-Sep-13 13:29N 39°52' W 073°49'0 0.6
2017-Sep-13 13:00N 39°52' W 073°48'1 1.3
2017-Sep-13 12:28N 39°52' W 073°49'0 0.3
2017-Sep-13 11:58N 39°52' W 073°49'0 0.4
2017-Sep-13 11:29N 39°52' W 073°49'0 0.9
2017-Sep-13 10:59N 39°52' W 073°48'0 0.1
2017-Sep-13 10:30N 39°52' W 073°48'1 1.3
2017-Sep-13 10:00N 39°52' W 073°49'2 3.1
2017-Sep-13 09:30N 39°51' W 073°51'4 8.6
2017-Sep-13 09:00N 39°49' W 073°56'4 8.8
2017-Sep-13 08:30N 39°47' W 074°01'4 8.1
2017-Sep-13 08:00N 39°46' W 074°06'1 0.0
2017-Sep-12 18:20N 39°46' W 074°07'1 2.0
2017-Sep-12 17:58N 39°46' W 074°06'4 8.0
2017-Sep-12 17:26N 39°48' W 074°01'10 3.8
2017-Sep-12 14:44N 39°51' W 073°48'0 0.2
2017-Sep-12 14:30N 39°51' W 073°48'0 0.8
2017-Sep-12 13:56N 39°52' W 073°48'0 0.4
2017-Sep-12 13:28N 39°52' W 073°48'0 0.2
2017-Sep-12 12:49N 39°52' W 073°48'5 1.4
2017-Sep-12 09:13N 39°50' W 073°54'2 8.7
2017-Sep-12 08:59N 39°49' W 073°57'5 8.6
2017-Sep-12 08:25N 39°47' W 074°03'3 7.9
2017-Sep-12 08:00N 39°46' W 074°07'0 0.0
2017-Sep-11 19:21N 39°46' W 074°07'2 6.3
2017-Sep-11 19:00N 39°46' W 074°04'4 0.4
2017-Sep-11 08:50N 39°48' W 073°59'3 8.3
2017-Sep-11 08:29N 39°47' W 074°02'3 0.1
2017-Sep-09 17:49N 39°46' W 074°07'0 0.0
2017-Sep-09 17:25N 39°46' W 074°07'2 5.0
2017-Sep-09 17:00N 39°47' W 074°05'4 3.1
2017-Sep-09 15:53N 39°51' W 074°05'1 0.3
2017-Sep-09 14:10N 39°51' W 074°04'1 0.2
2017-Sep-09 11:21N 39°51' W 074°03'0 1.1
2017-Sep-09 10:58N 39°51' W 074°04'4 8.3
2017-Sep-09 10:30N 39°47' W 074°05'  

Dump ship's entire track history